• Join FlightAware (Why Join?)
  • Login
  • US Flag 
07:22AM EDT


 

Airport Tracker/Info


-or-


 

Live Flight TrackerFlight Track Log ✈ XOJ552 ✈ 10-May-2013 ✈ KHOU - KDAL

Flight Track Log - Related Links

Times and Time Zones

All times are in EDT time to prevent confusion due to time zone crossing. See the XOJ552 flight status page for this flight to view local times or setup timezone preferences in your user account.

Time Position Orientation Groundspeed Altitude Reporting Facility
EDT Latitude Longitude Course Direction KTS MPH feet Rate Location/Type
11:55PM 29.6544 -95.3372 298° West 264 304 3,600  Level Houston Center
11:57PM 29.7236 -95.3122 17° North 268 308 8,800 4,620 Climbing Houston Center
11:58PM 29.7889 -95.2533 38° Northeast 276 318 13,400 4,260 Climbing Houston Center
11:59PM 29.8508 -95.1828 45° Northeast 306 352 17,800 3,360 Climbing Houston Center
12:00AM 29.9144 -95.1169 42° Northeast 306 352 20,200 1,980 Climbing Houston Center
12:01AM 29.9858 -95.0311 46° Northeast 367 422 21,800 840 Climbing Houston Center
12:02AM 30.0664 -94.9317 47° Northeast 419 482 22,000 60 Climbing Houston Center
12:03AM 30.1583 -94.8206 46° Northeast 474 545 22,000 1,320 Level Houston Center
12:04AM 30.2794 -94.7625 22° Northeast 464 534 24,700 2,820 Climbing Houston Center
12:05AM 30.3997 -94.7175 18° North 454 522 27,800 3,300 Climbing Houston Center
12:06AM 30.5072 -94.6739 19° North 428 493 31,400 3,120 Climbing Houston Center
12:07AM 30.6139 -94.6417 15° North 402 463 34,200 2,160 Climbing Houston Center
12:08AM 30.7281 -94.6442 359° North 412 474 35,800 1,380 Climbing Houston Center
12:09AM 30.8203 -94.7153 326° Northwest 396 456 37,100 1,320 Climbing Houston Center
12:10AM 30.9033 -94.8047 317° Northwest 400 460 38,500 1,380 Climbing Houston Center
12:11AM 30.9853 -94.8922 318° Northwest 397 457 40,000 720 Climbing Houston Center
12:12AM 31.0658 -94.9814 317° Northwest 392 451 40,000  Level Houston Center
12:13AM 31.1492 -95.0711 317° Northwest 397 457 40,000  Level Houston Center
12:14AM 31.2331 -95.1611 317° Northwest 404 465 40,000  Level Houston Center
12:14AM 31.2650 -95.2017 313° West 411 473 40,000  Level Fort Worth Center
12:15AM 31.3458 -95.2875 318° Northwest 404 465 40,000  Level Fort Worth Center
12:16AM 31.4369 -95.3803 319° Northwest 399 459 40,000  Level Fort Worth Center
12:17AM 31.5156 -95.4686 316° Northwest 394 453 40,000 -1,500 Level Fort Worth Center
12:18AM 31.5942 -95.5550 317° Northwest 379 436 37,000 -2,940 Descending Fort Worth Center
12:19AM 31.6750 -95.6461 316° Northwest 390 449 34,200 -2,760 Descending Fort Worth Center
12:20AM 31.7511 -95.7300 317° Northwest 404 465 31,500 -2,760 Descending Fort Worth Center
12:21AM 31.8317 -95.8214 316° Northwest 404 465 28,700 -2,820 Descending Fort Worth Center
12:22AM 31.9081 -95.9083 316° Northwest 399 459 25,900 -2,940 Descending Fort Worth Center
12:23AM 31.9947 -96.0025 317° Northwest 394 453 22,900 -2,640 Descending Fort Worth Center
12:24AM 32.0622 -96.0775 317° Northwest 388 447 20,700 -2,460 Descending Fort Worth Center
12:25AM 32.1383 -96.1622 317° Northwest 371 427 18,000 -2,640 Descending Fort Worth Center
12:26AM 32.2142 -96.2372 320° Northwest 365 420 15,500 -2,640 Descending Fort Worth Center
12:27AM 32.3022 -96.2878 334° Northwest 333 383 12,800 -2,400 Descending Fort Worth Center
12:28AM 32.3800 -96.3358 332° Northwest 318 366 10,800 -2,040 Descending Fort Worth Center
12:29AM 32.4431 -96.3942 322° Northwest 299 344 8,800 -900 Descending Fort Worth Center
12:30AM 32.5042 -96.4575 319° Northwest 294 338 9,000 -600 Climbing Fort Worth Center
12:31AM 32.5608 -96.5211 317° Northwest 283 326 7,600 -1,620 Descending Fort Worth Center
12:32AM 32.6156 -96.5822 317° Northwest 276 318 5,800 -1,980 Descending Fort Worth Center
12:33AM 32.6725 -96.6433 318° Northwest 276 318 3,700 -1,560 Descending Fort Worth Center
12:34AM 32.7167 -96.6833 323° Northwest 247 284 3,000 -660 Descending Dallas / Fort Worth TRACON
12:35AM 32.7500 -96.7333 308° West 210 242 2,600 -480 Descending Dallas / Fort Worth TRACON
12:36AM 32.7833 -96.7833 308° West 156 180 2,100 -780 Descending Dallas / Fort Worth TRACON
12:37AM 32.8167 -96.8000 337° Northwest 130 150 1,200 -1,020 Descending Dallas / Fort Worth TRACON
12:43AM 32.8333 -96.8500 301° West  Level FlightAware Approximate
12:50AM 32.8471 -96.8518 301° West  Level Estimated